Time;durP1;ratioP1;P1;durP2;ratioP2;P2;SDS_P1;SDS_P2;PMS_P1;PMS_P2;Temp;Humidity;BMP_temperature;BMP_pressure;BME280_temperature;BME280_humidity;BME280_pressure;Samples;Min_cycle;Max_cycle;Signal;HPM_P1;HPM_P2
2022/01/21 00:01:51;;;;;;;;;5.00;5.00;;;;;5.30;71.43;103103.09;5057407;28;45467;-86
2022/01/21 00:04:16;;;;;;;;;10.00;6.67;;;;;4.95;71.36;103051.25;5057375;28;45551;-86
2022/01/21 00:06:42;;;;;;;;;10.00;6.00;;;;;5.40;71.32;103125.78;5057111;28;47767;-86
2022/01/21 00:09:46;;;;;;;;;6.67;5.00;;;;;5.65;71.49;103144.41;5056977;28;45447;-86
2022/01/21 00:12:11;;;;;;;;;10.33;7.00;;;;;5.49;71.26;103142.28;5056793;28;45406;-85
2022/01/21 00:14:37;;;;;;;;;8.33;4.67;;;;;4.66;71.68;103008.56;5056817;28;45626;-85
2022/01/21 00:17:02;;;;;;;;;5.33;5.33;;;;;5.04;71.91;103074.72;5056581;28;47069;-85
2022/01/21 00:19:35;;;;;;;;;3.67;3.67;;;;;5.11;71.77;103092.81;5056901;28;45307;-86
2022/01/21 00:30:16;;;;;;;;;10.33;6.00;;;;;4.98;72.11;103061.09;5057511;28;45393;-85
2022/01/21 00:32:43;;;;;;;;;5.33;5.33;;;;;5.37;72.04;103127.25;5056219;28;45311;-86
2022/01/21 00:35:09;;;;;;;;;8.33;5.00;;;;;4.83;72.41;103030.94;5056333;28;45537;-86
2022/01/21 00:37:35;;;;;;;;;10.00;7.00;;;;;4.81;72.22;103044.88;5055934;28;48274;-85
2022/01/21 00:40:02;;;;;;;;;6.00;3.00;;;;;4.67;72.25;103013.94;5055852;28;45323;-85
2022/01/21 00:44:58;;;;;;;;;8.67;6.00;;;;;5.39;72.68;103129.22;5057335;28;45383;-86
2022/01/21 00:47:24;;;;;;;;;7.00;6.33;;;;;4.49;72.36;102970.41;5056109;28;48504;-85
2022/01/21 00:49:49;;;;;;;;;10.00;7.00;;;;;4.83;72.21;103047.63;5055847;28;45631;-85
2022/01/21 00:52:14;;;;;;;;;7.00;5.00;;;;;4.48;71.94;102969.50;5056161;28;45351;-85
2022/01/21 00:54:40;;;;;;;;;9.00;6.33;;;;;4.70;72.42;103029.97;5055538;28;45549;-85
2022/01/21 00:57:06;;;;;;;;;7.33;5.00;;;;;4.86;72.94;103054.84;5055639;28;47390;-85
2022/01/21 00:59:31;;;;;;;;;6.67;6.67;;;;;4.42;72.91;102985.69;5055408;28;45366;-85
2022/01/21 01:01:57;;;;;;;;;6.00;5.00;;;;;4.77;72.25;103042.81;5055954;28;45337;-85
2022/01/21 01:04:22;;;;;;;;;5.33;5.33;;;;;4.93;72.70;103054.53;5055674;28;45526;-85
2022/01/21 01:06:47;;;;;;;;;6.67;6.00;;;;;5.11;72.74;103087.56;5055559;28;47615;-85
2022/01/21 01:09:13;;;;;;;;;10.00;6.00;;;;;5.04;72.42;103097.50;5055408;28;45295;-85
2022/01/21 01:19:57;;;;;;;;;8.33;6.33;;;;;4.35;72.92;102991.25;5056886;28;45263;-85
2022/01/21 01:27:58;;;;;;;;;10.67;7.00;;;;;4.78;73.36;103060.41;5056763;28;45244;-86
2022/01/21 01:30:27;;;;;;;;;7.00;6.33;;;;;5.24;72.86;103125.38;5055670;28;45496;-86
2022/01/21 01:32:58;;;;;;;;;7.33;6.00;;;;;4.51;73.44;103016.13;5055841;28;45320;-86
2022/01/21 01:35:25;;;;;;;;;10.33;6.00;;;;;4.86;73.14;103082.06;5055732;28;45514;-86
2022/01/21 01:38:16;;;;;;;;;9.00;6.00;;;;;5.06;73.40;103124.81;5055032;28;47191;-85
2022/01/21 01:40:56;;;;;;;;;6.00;5.00;;;;;4.91;73.22;103098.19;5055252;28;45568;-86
2022/01/21 01:51:17;;;;;;;;;6.00;6.00;;;;;4.61;73.14;103042.38;5056364;28;45385;-85
2022/01/21 01:53:52;;;;;;;;;7.67;5.67;;;;;5.18;73.50;103144.22;5055466;28;45441;-85
2022/01/21 01:56:23;;;;;;;;;11.67;6.67;;;;;5.03;73.88;103128.13;5055189;28;45451;-85
2022/01/21 01:58:48;;;;;;;;;8.67;6.33;;;;;5.00;74.09;103143.66;5054872;28;47181;-86
2022/01/21 02:01:14;;;;;;;;;8.00;6.00;;;;;4.51;74.10;103066.09;5055234;28;45422;-85
2022/01/21 02:03:40;;;;;;;;;10.67;7.00;;;;;4.44;74.07;103054.16;5056653;28;45320;-85
2022/01/21 02:06:05;;;;;;;;;12.00;10.33;;;;;4.46;73.94;103055.22;5054799;28;45309;-85
2022/01/21 02:08:31;;;;;;;;;5.00;5.00;;;;;4.76;74.23;103103.16;5054806;28;47120;-85
2022/01/21 02:10:57;;;;;;;;;2.00;2.00;;;;;4.65;74.15;103091.78;5054925;28;45413;-86
2022/01/21 02:13:33;;;;;;;;;8.33;6.67;;;;;4.49;74.34;103065.03;5055167;28;45796;-86
2022/01/21 02:16:08;;;;;;;;;8.33;6.33;;;;;4.32;74.06;103050.53;5054916;28;45533;-85
2022/01/21 02:23:54;;;;;;;;;5.00;5.00;;;;;4.89;74.46;103148.06;5062872;28;45169;-85
2022/01/21 02:26:20;;;;;;;;;6.00;6.00;;;;;4.95;74.37;103147.63;5075291;28;45539;-85
2022/01/21 02:28:45;;;;;;;;;8.33;8.33;;;;;4.59;74.63;103078.16;5074940;28;48474;-85
2022/01/21 02:31:10;;;;;;;;;8.33;6.00;;;;;4.53;74.40;103077.63;5075041;28;45452;-86
2022/01/21 02:33:36;;;;;;;;;6.67;5.00;;;;;4.45;74.44;103075.31;5075131;28;45448;-85
2022/01/21 02:36:01;;;;;;;;;11.67;9.00;;;;;4.68;74.34;103120.94;5074925;28;45264;-86
2022/01/21 02:38:26;;;;;;;;;10.00;6.00;;;;;4.34;74.08;103052.47;5075132;28;48252;-85
2022/01/21 02:40:52;;;;;;;;;7.67;6.00;;;;;4.03;74.66;103000.06;5074825;28;45261;-86
2022/01/21 02:43:17;;;;;;;;;7.00;7.00;;;;;4.51;73.97;103090.66;5075123;28;45434;-86
2022/01/21 02:45:46;;;;;;;;;7.00;6.00;;;;;4.17;74.46;103039.69;5074865;28;45336;-85
2022/01/21 02:48:12;;;;;;;;;7.00;5.67;;;;;4.92;74.59;103144.75;5074547;28;47320;-85
2022/01/21 02:50:37;;;;;;;;;9.33;6.33;;;;;4.33;74.40;103042.75;5074439;28;45341;-85
2022/01/21 02:53:25;;;;;;;;;6.33;5.33;;;;;4.94;74.01;103158.97;5074566;28;45278;-85
2022/01/21 02:55:51;;;;;;;;;9.67;7.00;;;;;4.48;74.50;103072.00;5074664;28;45529;-85
2022/01/21 02:58:16;;;;;;;;;13.00;11.67;;;;;4.66;74.19;103097.97;5074526;28;47983;-85
2022/01/21 03:00:41;;;;;;;;;13.67;11.00;;;;;4.32;74.14;103040.94;5074878;28;45727;-85
2022/01/21 03:03:07;;;;;;;;;14.67;14.00;;;;;4.88;74.16;103137.41;5074833;28;45286;-86
2022/01/21 03:05:35;;;;;;;;;14.00;13.00;;;;;4.45;74.16;103084.91;5077257;28;45587;-85
2022/01/21 03:08:01;;;;;;;;;13.33;10.67;;;;;4.59;74.33;103112.31;5077993;28;47052;-86
2022/01/21 03:10:26;;;;;;;;;13.67;12.67;;;;;4.59;74.57;103096.56;5077914;28;45472;-85
2022/01/21 03:12:52;;;;;;;;;11.67;9.67;;;;;4.86;74.66;103147.81;5078205;28;45454;-85
2022/01/21 03:15:18;;;;;;;;;17.33;10.33;;;;;4.31;74.03;103044.34;5079187;27;45295;-86
2022/01/21 03:17:43;;;;;;;;;10.67;8.33;;;;;4.07;74.19;103001.25;5077877;28;47216;-86
2022/01/21 03:20:09;;;;;;;;;7.67;7.67;;;;;4.57;73.95;103085.91;5077709;28;45534;-85
2022/01/21 03:22:36;;;;;;;;;12.33;9.33;;;;;4.00;73.63;102989.31;5078141;28;45345;-85
2022/01/21 03:25:03;;;;;;;;;6.67;6.67;;;;;4.54;74.04;103096.16;5062636;27;45369;-86
2022/01/21 03:27:28;;;;;;;;;13.67;9.00;;;;;4.53;74.35;103102.22;5057546;28;48288;-85
2022/01/21 03:29:54;;;;;;;;;9.33;6.33;;;;;4.38;74.41;103091.38;5057346;28;45528;-85
2022/01/21 03:32:19;;;;;;;;;7.67;6.33;;;;;4.40;74.26;103091.50;5057413;28;45370;-86
2022/01/21 03:34:45;;;;;;;;;7.00;1.00;;;;;4.54;74.47;103121.53;5056573;28;45467;-86
2022/01/21 03:37:10;;;;;;;;;7.00;7.00;;;;;4.40;74.81;103108.19;5056743;28;48463;-85
2022/01/21 03:39:35;;;;;;;;;5.33;5.33;;;;;4.72;74.18;103145.78;5056809;28;45473;-85
2022/01/21 03:42:01;;;;;;;;;6.00;6.00;;;;;4.68;73.98;103130.56;5056615;28;45505;-85
2022/01/21 03:44:26;;;;;;;;;13.00;7.00;;;;;4.43;74.04;103087.41;5057120;28;45360;-85
2022/01/21 03:46:51;;;;;;;;;6.00;6.00;;;;;4.44;73.70;103104.09;5056830;28;47967;-85
2022/01/21 03:49:17;;;;;;;;;6.00;6.00;;;;;4.32;73.52;103076.81;5056587;28;45880;-85
2022/01/21 03:51:42;;;;;;;;;10.00;6.00;;;;;4.45;73.59;103116.44;5058493;28;45398;-85
2022/01/21 03:54:08;;;;;;;;;10.67;7.00;;;;;4.43;73.81;103113.69;5057070;28;45302;-85
2022/01/21 03:56:35;;;;;;;;;1.33;0.00;;;;;4.66;74.04;103150.56;5057336;28;47402;-86
2022/01/21 03:59:00;;;;;;;;;13.33;6.33;;;;;4.49;74.02;103102.78;5056806;28;45441;-85
2022/01/21 04:01:28;;;;;;;;;15.00;8.33;;;;;4.66;74.18;103122.53;5056895;28;45382;-85
2022/01/21 04:03:53;;;;;;;;;6.67;6.33;;;;;4.21;73.93;103057.53;5057596;28;45315;-85
2022/01/21 04:06:19;;;;;;;;;6.67;6.67;;;;;4.10;73.86;103026.03;5056897;28;47785;-85
2022/01/21 04:08:44;;;;;;;;;7.00;7.00;;;;;4.52;73.31;103084.63;5056744;28;45420;-85
2022/01/21 04:11:09;;;;;;;;;5.00;5.00;;;;;4.23;73.68;103027.03;5056966;28;45391;-84
2022/01/21 04:13:35;;;;;;;;;6.33;5.67;;;;;4.62;73.28;103068.78;5056942;28;45363;-85
2022/01/21 04:16:01;;;;;;;;;5.67;5.67;;;;;4.93;73.53;103146.59;5055772;28;46977;-85
2022/01/21 04:18:26;;;;;;;;;9.33;6.67;;;;;4.65;73.26;103089.16;5057587;28;45376;-86
2022/01/21 04:20:53;;;;;;;;;10.00;7.67;;;;;5.01;73.35;103152.47;5056714;28;45478;-85
2022/01/21 04:23:20;;;;;;;;;7.00;6.00;;;;;4.85;73.47;103130.19;5058445;28;45403;-85
2022/01/21 04:25:46;;;;;;;;;6.67;6.67;;;;;4.85;73.56;103131.91;5076479;28;47173;-85
2022/01/21 04:28:12;;;;;;;;;9.00;9.00;;;;;4.67;73.50;103100.72;5076780;28;45284;-85
2022/01/21 04:30:45;;;;;;;;;9.33;5.67;;;;;5.14;73.57;103172.00;5076606;28;45251;-85
2022/01/21 04:33:11;;;;;;;;;11.67;5.33;;;;;4.86;73.10;103131.13;5076441;28;45278;-85
2022/01/21 04:35:38;;;;;;;;;6.00;6.00;;;;;5.28;73.18;103191.53;5076628;28;47102;-85
2022/01/21 04:38:08;;;;;;;;;7.00;6.00;;;;;4.57;73.01;103075.41;5076408;28;45195;-85
2022/01/21 04:40:39;;;;;;;;;7.67;6.33;;;;;4.86;73.45;103132.03;5076649;28;45587;-85
2022/01/21 04:48:35;;;;;;;;;8.00;5.67;;;;;5.15;72.73;103159.78;5077491;28;45405;-85
2022/01/21 04:51:13;;;;;;;;;9.00;6.00;;;;;4.68;72.53;103070.06;5076497;28;45787;-85
2022/01/21 04:53:40;;;;;;;;;11.00;6.00;;;;;4.72;72.94;103077.41;5076468;28;45448;-85
2022/01/21 04:56:06;;;;;;;;;11.67;6.33;;;;;5.32;72.93;103182.16;5076120;28;47333;-85
2022/01/21 04:58:32;;;;;;;;;5.67;5.67;;;;;4.95;72.63;103110.81;5076161;28;45996;-85
2022/01/21 05:01:02;;;;;;;;;11.00;6.67;;;;;4.75;72.82;103086.47;5076207;28;45297;-85
2022/01/21 05:03:28;;;;;;;;;9.67;6.00;;;;;4.78;72.38;103086.72;5076126;28;45445;-85
2022/01/21 05:05:53;;;;;;;;;7.67;7.00;;;;;4.79;72.40;103085.91;5076039;28;48094;-85
2022/01/21 05:08:30;;;;;;;;;6.67;5.67;;;;;4.90;72.59;103117.44;5075936;28;45372;-86
2022/01/21 05:11:06;;;;;;;;;7.67;5.67;;;;;4.74;72.29;103084.63;5076253;28;45326;-85
2022/01/21 05:13:38;;;;;;;;;9.33;6.33;;;;;5.12;72.24;103152.56;5077466;27;45175;-85
2022/01/21 05:16:09;;;;;;;;;5.00;3.00;;;;;5.10;72.71;103143.59;5075567;28;48019;-85
2022/01/21 05:18:35;;;;;;;;;6.33;5.33;;;;;5.03;72.19;103136.00;5075858;28;45610;-86
2022/01/21 05:21:01;;;;;;;;;10.00;7.00;;;;;4.49;72.63;103054.50;5076080;28;45617;-85
2022/01/21 05:23:27;;;;;;;;;9.33;5.67;;;;;5.32;72.41;103195.34;5076068;28;45429;-85
2022/01/21 05:25:52;;;;;;;;;5.67;5.67;;;;;4.41;72.47;103049.56;5076011;27;48135;-85
2022/01/21 05:28:18;;;;;;;;;5.67;5.00;;;;;4.76;72.87;103104.06;5075749;27;45638;-85
2022/01/21 05:30:43;;;;;;;;;6.33;5.00;;;;;4.68;72.64;103086.75;5076739;27;45306;-85
2022/01/21 05:33:09;;;;;;;;;8.00;6.67;;;;;4.85;72.86;103117.03;5075807;28;45350;-85
2022/01/21 05:35:34;;;;;;;;;9.33;6.67;;;;;4.87;72.84;103147.03;5076858;27;45474;-85
2022/01/21 05:38:00;;;;;;;;;10.00;5.67;;;;;4.71;73.00;103112.38;5075431;28;45897;-85
2022/01/21 05:40:25;;;;;;;;;10.33;5.67;;;;;4.70;73.20;103134.22;5075517;28;45678;-85
2022/01/21 05:42:51;;;;;;;;;6.00;5.00;;;;;4.96;73.21;103197.78;5075786;28;45527;-85
2022/01/21 05:48:00;;;;;;;;;10.00;5.33;;;;;4.96;73.21;103199.47;5076599;28;45345;-84
2022/01/21 05:50:26;;;;;;;;;5.33;5.33;;;;;4.70;73.72;103145.66;5075287;28;45299;-85
2022/01/21 05:52:51;;;;;;;;;12.33;6.67;;;;;4.70;73.20;103160.50;5075649;28;45524;-85
2022/01/21 05:55:17;;;;;;;;;6.67;5.67;;;;;5.17;73.14;103225.69;5076396;28;46430;-85
2022/01/21 05:57:43;;;;;;;;;10.00;7.00;;;;;4.71;73.02;103147.50;5075375;28;45238;-86
2022/01/21 06:00:10;;;;;;;;;5.67;5.00;;;;;4.30;73.09;103079.31;5074760;28;45239;-85
2022/01/21 06:02:36;;;;;;;;;10.00;7.00;;;;;4.68;73.16;103143.69;5075351;28;45406;-85
2022/01/21 06:05:02;;;;;;;;;10.00;7.00;;;;;4.82;72.96;103187.81;5074941;28;47004;-86
2022/01/21 06:07:27;;;;;;;;;10.67;9.00;;;;;4.80;73.31;103174.53;5074873;28;45638;-85
2022/01/21 06:09:53;;;;;;;;;10.00;7.00;;;;;4.72;73.39;103164.19;5075014;28;45371;-85
2022/01/21 06:12:18;;;;;;;;;10.00;6.00;;;;;4.77;73.29;103179.56;5073888;28;45557;-85
2022/01/21 06:14:44;;;;;;;;;10.00;9.00;;;;;4.55;73.31;103145.31;5074972;28;47132;-85
2022/01/21 06:17:11;;;;;;;;;7.00;6.00;;;;;4.54;73.06;103119.81;5074946;28;45477;-85
2022/01/21 06:19:55;;;;;;;;;6.00;5.33;;;;;5.18;72.89;103240.69;5074614;28;45473;-85
2022/01/21 06:22:21;;;;;;;;;10.67;6.67;;;;;4.36;72.83;103100.84;5075731;28;45292;-90
2022/01/21 06:24:46;;;;;;;;;10.00;8.00;;;;;4.74;72.89;103194.16;5075855;27;47348;-89
2022/01/21 06:27:12;;;;;;;;;7.67;6.00;;;;;5.11;72.78;103232.28;5075058;28;45472;-90
2022/01/21 06:29:38;;;;;;;;;9.00;7.00;;;;;4.76;72.94;103182.97;5076406;28;45381;-90
2022/01/21 06:32:04;;;;;;;;;6.67;3.67;;;;;4.17;72.94;103076.47;5073708;28;45505;-90
2022/01/21 06:34:29;;;;;;;;;13.67;9.00;;;;;4.62;72.96;103158.16;5057068;28;47345;-90
2022/01/21 06:36:55;;;;;;;;;9.00;5.00;;;;;4.06;72.97;103073.84;5072032;28;45682;-85
2022/01/21 06:39:20;;;;;;;;;9.67;6.67;;;;;4.57;72.95;103169.09;5071592;27;45341;-85
2022/01/21 06:41:47;;;;;;;;;9.00;6.33;;;;;4.42;73.30;103143.41;5074170;28;45455;-85
2022/01/21 06:44:13;;;;;;;;;7.00;6.33;;;;;4.31;72.88;103123.19;5077138;28;46665;-84
2022/01/21 06:46:39;;;;;;;;;6.33;5.67;;;;;4.53;73.38;103164.38;5066147;27;45409;-86
2022/01/21 06:49:05;;;;;;;;;10.67;9.33;;;;;4.64;73.03;103177.63;5068585;28;45456;-84
2022/01/21 06:51:30;;;;;;;;;6.33;3.00;;;;;4.95;72.86;103239.72;5077202;27;45359;-83
2022/01/21 06:53:56;;;;;;;;;8.33;6.00;;;;;4.31;73.17;103132.81;5074307;27;45545;-84
2022/01/21 06:56:40;;;;;;;;;8.67;8.67;;;;;5.10;73.12;103258.47;5078105;27;45613;-85
2022/01/21 06:59:06;;;;;;;;;6.67;5.00;;;;;4.91;73.01;103217.50;5068335;27;45259;-85
2022/01/21 07:01:31;;;;;;;;;10.00;7.00;;;;;4.62;72.71;103188.81;5077395;28;45279;-85
2022/01/21 07:03:56;;;;;;;;;10.00;8.33;;;;;5.04;72.52;103248.38;5077196;28;48151;-85
2022/01/21 07:06:22;;;;;;;;;6.00;6.00;;;;;4.76;73.20;103208.38;5077699;28;45888;-85
2022/01/21 07:08:47;;;;;;;;;10.00;9.67;;;;;4.71;73.01;103194.84;5077297;27;45493;-85
2022/01/21 07:11:13;;;;;;;;;10.00;7.00;;;;;4.97;72.67;103240.78;5097283;27;45405;-85
2022/01/21 07:13:38;;;;;;;;;9.33;6.33;;;;;5.08;72.24;103257.44;5077616;28;47535;-85
2022/01/21 07:16:04;;;;;;;;;7.33;5.00;;;;;5.04;72.14;103248.38;5078216;27;45360;-85
2022/01/21 07:18:30;;;;;;;;;7.00;6.00;;;;;4.26;72.15;103130.72;5087634;27;45677;-86
2022/01/21 07:20:56;;;;;;;;;9.00;6.67;;;;;5.23;72.27;103285.00;5094692;27;45418;-84
2022/01/21 07:23:22;;;;;;;;;9.00;7.00;;;;;5.15;72.19;103268.56;5061157;27;45539;-82
2022/01/21 07:25:47;;;;;;;;;7.00;7.00;;;;;5.07;72.17;103237.19;5068347;28;45916;-82
2022/01/21 07:28:12;;;;;;;;;7.00;7.00;;;;;5.08;72.14;103252.19;5063059;27;45446;-82
2022/01/21 07:30:38;;;;;;;;;7.00;7.00;;;;;4.85;71.68;103218.72;5066308;27;45461;-84
2022/01/21 07:33:03;;;;;;;;;10.00;6.00;;;;;4.51;71.84;103160.72;5073235;28;47113;-82
2022/01/21 07:35:29;;;;;;;;;10.00;10.00;;;;;4.56;71.91;103194.50;5062941;27;45837;-83
2022/01/21 07:37:54;;;;;;;;;10.67;7.00;;;;;5.21;71.61;103283.94;5058872;28;45339;-83
2022/01/21 07:40:19;;;;;;;;;11.67;9.67;;;;;5.06;71.72;103249.41;5060033;28;45700;-83
2022/01/21 07:42:45;;;;;;;;;9.00;6.67;;;;;4.21;71.89;103131.13;5079822;27;47092;-82
2022/01/21 07:45:10;;;;;;;;;6.33;6.33;;;;;4.47;72.50;103168.38;5069882;28;45625;-82
2022/01/21 07:47:36;;;;;;;;;8.33;6.00;;;;;4.69;71.88;103206.94;5064812;28;45165;-83
2022/01/21 07:50:02;;;;;;;;;9.33;8.67;;;;;5.10;71.94;103271.63;5074072;27;45375;-82
2022/01/21 07:52:27;;;;;;;;;6.33;3.67;;;;;5.14;72.21;103277.25;5068730;27;48186;-82
2022/01/21 07:54:53;;;;;;;;;9.33;7.00;;;;;5.23;72.14;103297.22;5060704;28;45491;-81
2022/01/21 07:57:18;;;;;;;;;10.00;7.00;;;;;5.22;72.02;103300.66;5062511;27;46031;-81
2022/01/21 07:59:43;;;;;;;;;11.67;7.00;;;;;4.91;72.02;103256.97;5074044;27;45791;-81
2022/01/21 08:02:09;;;;;;;;;11.00;10.00;;;;;5.03;72.34;103275.47;5058291;27;48297;-81
2022/01/21 08:04:35;;;;;;;;;11.67;9.67;;;;;4.72;72.20;103224.69;5068892;27;45307;-82
2022/01/21 08:07:01;;;;;;;;;14.67;13.33;;;;;4.41;72.30;103193.22;5070060;27;45869;-82
2022/01/21 08:09:26;;;;;;;;;17.33;13.00;;;;;4.76;72.80;103271.47;5078278;27;45591;-82
2022/01/21 08:11:53;;;;;;;;;10.33;9.00;;;;;5.22;72.88;103326.97;5072203;27;46420;-83
2022/01/21 08:14:19;;;;;;;;;9.67;9.67;;;;;5.07;72.29;103316.13;5079155;27;45650;-82
2022/01/21 08:16:44;;;;;;;;;12.33;10.67;;;;;4.74;72.79;103255.56;5057963;28;45537;-82
2022/01/21 08:19:10;;;;;;;;;12.00;9.33;;;;;4.71;73.03;103249.13;5066064;28;45440;-82
2022/01/21 08:21:36;;;;;;;;;16.33;11.00;;;;;4.96;72.61;103279.31;5069128;28;45725;-82
2022/01/21 08:24:03;;;;;;;;;9.67;7.33;;;;;4.97;72.46;103285.50;5077270;27;45436;-82
2022/01/21 08:26:29;;;;;;;;;11.67;9.00;;;;;5.09;72.62;103289.16;5064766;27;45680;-83
2022/01/21 08:28:56;;;;;;;;;9.00;9.00;;;;;4.97;72.59;103260.09;5065751;28;45401;-83
2022/01/21 08:31:23;;;;;;;;;10.67;9.67;;;;;4.96;72.04;103268.81;5075417;27;47023;-85
2022/01/21 08:33:50;;;;;;;;;9.33;9.33;;;;;4.94;72.28;103266.84;5074342;27;45310;-82
2022/01/21 08:36:18;;;;;;;;;17.33;9.00;;;;;4.86;72.24;103246.88;5080664;27;45334;-81
2022/01/21 08:38:43;;;;;;;;;13.33;9.67;;;;;4.95;72.38;103263.38;5069806;28;45538;-82
2022/01/21 08:41:09;;;;;;;;;14.33;11.67;;;;;5.02;72.68;103268.38;5070757;27;46209;-83
2022/01/21 08:43:34;;;;;;;;;10.00;6.33;;;;;5.21;72.29;103298.84;5068426;27;45392;-83
2022/01/21 08:45:59;;;;;;;;;10.00;10.00;;;;;5.28;72.21;103296.81;5057653;27;45457;-82
2022/01/21 08:48:25;;;;;;;;;10.67;9.67;;;;;5.02;72.32;103256.91;5056839;28;45603;-82
2022/01/21 08:50:51;;;;;;;;;10.67;10.67;;;;;4.12;72.15;103113.78;5066759;28;46957;-82
2022/01/21 08:56:14;;;;;;;;;10.00;7.67;;;;;5.42;72.29;103302.28;5062385;28;45461;-83
2022/01/21 08:58:41;;;;;;;;;15.67;10.67;;;;;5.19;72.02;103255.66;5066119;27;45567;-83
2022/01/21 09:01:08;;;;;;;;;12.33;9.67;;;;;4.72;72.06;103174.72;5063204;28;47515;-83
2022/01/21 09:03:34;;;;;;;;;15.33;12.33;;;;;5.47;71.87;103315.03;5062226;27;45212;-83
2022/01/21 09:06:00;;;;;;;;;11.67;11.33;;;;;5.35;72.02;103281.53;5068591;28;45470;-82
2022/01/21 09:08:29;;;;;;;;;15.00;10.00;;;;;4.69;72.12;103163.94;5076354;27;46432;-82
2022/01/21 09:10:57;;;;;;;;;9.00;9.00;;;;;5.29;71.95;103260.91;5060914;28;46463;-83
2022/01/21 09:13:23;;;;;;;;;16.67;10.00;;;;;5.35;72.57;103282.44;5072164;27;45422;-83
2022/01/21 09:15:49;;;;;;;;;13.67;11.33;;;;;5.19;72.40;103235.56;5088761;27;46490;-83
2022/01/21 09:18:19;;;;;;;;;11.00;10.00;;;;;4.83;72.37;103172.97;5067332;27;46524;-83
2022/01/21 09:20:46;;;;;;;;;11.33;11.00;;;;;5.01;72.40;103213.91;5064733;27;45584;-84
2022/01/21 09:23:12;;;;;;;;;17.67;12.33;;;;;5.29;72.34;103255.63;5062276;28;45394;-84
2022/01/21 09:25:37;;;;;;;;;16.00;14.33;;;;;5.79;72.94;103343.03;5060789;28;45705;-84
2022/01/21 09:28:03;;;;;;;;;13.67;11.00;;;;;5.68;72.95;103309.63;5057240;28;45530;-83
2022/01/21 09:30:29;;;;;;;;;12.33;12.33;;;;;5.35;72.56;103263.09;5069548;27;47880;-80
2022/01/21 09:32:56;;;;;;;;;12.00;12.00;;;;;5.84;72.95;103349.59;5068925;28;45269;-80
2022/01/21 09:35:22;;;;;;;;;10.67;7.00;;;;;5.27;72.68;103263.41;5069966;27;45709;-83
2022/01/21 09:37:47;;;;;;;;;11.67;10.00;;;;;5.78;72.95;103351.75;5070833;27;45573;-83
2022/01/21 09:40:13;;;;;;;;;12.33;12.33;;;;;5.11;72.72;103249.78;5067633;27;46414;-87
2022/01/21 09:42:39;;;;;;;;;10.00;10.00;;;;;5.65;72.98;103334.03;5064732;28;45477;-85
2022/01/21 09:45:09;;;;;;;;;11.33;11.00;;;;;5.47;72.73;103308.81;5058168;28;45866;-86
2022/01/21 09:47:47;;;;;;;;;14.33;11.67;;;;;5.87;72.79;103395.44;5066672;28;45393;-86
2022/01/21 09:50:16;;;;;;;;;11.67;11.00;;;;;5.58;73.03;103365.91;5073689;27;46452;-87
2022/01/21 09:52:49;;;;;;;;;10.67;9.00;;;;;5.22;72.58;103303.28;5066320;28;45558;-88
2022/01/21 09:55:22;;;;;;;;;9.67;8.33;;;;;4.27;73.00;103126.38;5059362;28;45533;-87
2022/01/21 09:57:51;;;;;;;;;14.00;13.67;;;;;5.24;72.84;103268.41;5058918;28;45464;-83
2022/01/21 10:00:19;;;;;;;;;13.33;10.33;;;;;5.22;72.57;103243.69;5056685;28;46334;-87
2022/01/21 10:02:46;;;;;;;;;11.00;11.00;;;;;5.46;72.51;103315.81;5062613;27;45509;-83
2022/01/21 10:05:12;;;;;;;;;11.33;10.67;;;;;5.54;72.43;103323.41;5063492;28;45885;-83
2022/01/21 10:07:40;;;;;;;;;15.67;11.33;;;;;6.12;72.35;103394.00;5057587;28;45883;-83
2022/01/21 10:10:08;;;;;;;;;12.00;10.67;;;;;6.21;72.23;103391.16;5061239;27;45469;-83
2022/01/21 10:12:35;;;;;;;;;13.67;11.00;;;;;6.03;71.80;103348.44;5057597;27;45750;-82
2022/01/21 10:15:06;;;;;;;;;15.33;10.33;;;;;5.78;71.71;103295.50;5067939;27;45627;-83
2022/01/21 10:17:31;;;;;;;;;11.33;11.00;;;;;5.65;71.35;103276.09;5055703;28;45449;-83
2022/01/21 10:20:14;;;;;;;;;12.67;10.67;;;;;6.33;71.22;103378.97;5058427;28;47064;-84
2022/01/21 10:22:57;;;;;;;;;20.67;16.67;;;;;5.77;71.25;103286.69;5058773;28;45561;-83
2022/01/21 10:25:23;;;;;;;;;13.33;11.67;;;;;5.59;70.80;103267.69;5058450;27;45562;-81
2022/01/21 10:27:48;;;;;;;;;14.00;12.00;;;;;6.05;71.38;103333.69;5052176;28;45542;-82
2022/01/21 10:30:23;;;;;;;;;11.00;10.33;;;;;6.55;71.13;103412.28;5064874;28;48121;-83
2022/01/21 10:32:49;;;;;;;;;12.00;12.00;;;;;5.61;70.48;103223.03;5058751;28;45819;-86
2022/01/21 10:35:35;;;;;;;;;10.00;10.00;;;;;6.58;70.46;103388.81;5072967;27;45559;-85
2022/01/21 10:38:16;;;;;;;;;17.67;10.67;;;;;5.92;70.52;103288.69;5059301;28;45583;-85
2022/01/21 10:40:41;;;;;;;;;11.67;11.33;;;;;5.60;70.91;103223.88;5056254;27;47522;-86
2022/01/21 10:43:15;;;;;;;;;13.00;9.67;;;;;5.77;70.09;103252.44;5058987;28;45495;-86
2022/01/21 10:45:57;;;;;;;;;11.00;11.00;;;;;5.97;70.56;103287.34;5059730;27;45473;-85
2022/01/21 10:48:22;;;;;;;;;11.33;10.33;;;;;6.38;70.67;103360.84;5057506;28;45473;-86
2022/01/21 10:51:18;;;;;;;;;8.00;6.33;;;;;6.18;70.26;103323.31;5057828;28;46565;-90
2022/01/21 10:53:44;;;;;;;;;15.00;14.00;;;;;5.62;70.55;103212.63;5059608;28;45488;-85
2022/01/21 10:56:12;;;;;;;;;18.33;12.00;;;;;6.05;70.34;103295.88;5063248;27;45404;-85
2022/01/21 11:10:49;;;;;;;;;18.50;14.75;;;;;6.28;70.47;103321.41;6322256;22;1664824;-89
2022/01/21 11:13:20;;;;;;;;;14.67;14.67;;;;;5.80;70.15;103206.97;6344016;22;45275;-83
2022/01/21 11:15:48;;;;;;;;;16.67;13.00;;;;;6.91;70.14;103381.63;6316794;22;45419;-89
2022/01/21 11:18:17;;;;;;;;;13.00;12.00;;;;;6.91;70.15;103376.34;6315523;22;45435;-85
2022/01/21 11:20:47;;;;;;;;;12.33;12.00;;;;;6.64;69.87;103317.13;6342380;22;47303;-85
2022/01/21 11:23:13;;;;;;;;;11.33;11.33;;;;;6.67;69.88;103325.28;6313930;22;45608;-78
2022/01/21 11:25:44;;;;;;;;;15.67;13.67;;;;;7.02;69.92;103379.81;6342180;22;45329;-84
2022/01/21 11:28:10;;;;;;;;;16.00;12.33;;;;;6.57;69.46;103293.69;6297773;22;45702;-83
2022/01/21 11:30:36;;;;;;;;;11.00;11.00;;;;;6.51;69.73;103259.88;6331209;22;47462;-89
2022/01/21 11:33:01;;;;;;;;;20.67;14.33;;;;;7.22;69.61;103368.13;6334002;22;45445;-86
2022/01/21 11:35:29;;;;;;;;;17.00;11.33;;;;;6.61;69.09;103264.13;6309190;22;45362;-89
2022/01/21 11:37:55;;;;;;;;;10.67;10.67;;;;;6.49;69.61;103266.75;6308285;22;45449;-87
2022/01/21 11:40:22;;;;;;;;;12.33;11.00;;;;;7.11;69.85;103369.03;6305564;22;47799;-88
2022/01/21 11:42:48;;;;;;;;;11.33;10.00;;;;;6.04;69.53;103189.53;6332697;22;45615;-89
2022/01/21 11:45:32;;;;;;;;;16.33;12.00;;;;;7.06;69.65;103373.97;6305896;22;45411;-91
2022/01/21 11:50:30;;;;;;;;;16.33;13.33;;;;;6.11;69.37;103181.31;6334172;22;45634;-88
2022/01/21 11:52:56;;;;;;;;;18.00;14.00;;;;;5.40;69.63;103049.44;6304964;22;45522;-86
2022/01/21 11:55:30;;;;;;;;;12.00;11.00;;;;;6.72;69.54;103279.03;6307209;22;45382;-85
2022/01/21 11:58:20;;;;;;;;;15.67;12.00;;;;;6.50;69.37;103252.78;6304218;22;45835;-85
2022/01/21 12:00:50;;;;;;;;;4.33;4.33;;;;;7.02;69.78;103366.63;6307965;22;46382;-87
2022/01/21 12:03:22;;;;;;;;;14.33;12.00;;;;;6.22;70.04;103244.50;6303965;22;45343;-85
2022/01/21 12:05:49;;;;;;;;;16.00;13.33;;;;;6.94;69.98;103370.41;6303719;22;45407;-86
2022/01/21 12:08:14;;;;;;;;;12.67;12.00;;;;;6.74;70.06;103346.03;6304100;22;45366;-85
2022/01/21 12:10:42;;;;;;;;;13.67;10.67;;;;;6.50;70.16;103297.63;6293605;22;48560;-87
2022/01/21 12:13:17;;;;;;;;;12.33;10.33;;;;;6.93;70.14;103361.53;6292795;22;45545;-86
2022/01/21 12:16:16;;;;;;;;;13.00;12.67;;;;;6.62;69.77;103289.72;6295684;22;46050;-93
2022/01/21 12:19:11;;;;;;;;;13.33;13.33;;;;;6.84;70.38;103306.34;6298791;22;45484;-91
2022/01/21 12:21:41;;;;;;;;;14.00;14.00;;;;;6.63;69.66;103271.34;6274109;22;47096;-86
2022/01/21 12:24:08;;;;;;;;;15.33;13.00;;;;;7.27;69.32;103344.69;6292866;22;45507;-81
2022/01/21 12:26:34;;;;;;;;;13.33;13.33;;;;;6.60;69.25;103226.28;6294608;22;45448;-88
2022/01/21 12:28:59;;;;;;;;;17.00;13.00;;;;;7.34;68.68;103336.41;6268075;22;45371;-89
2022/01/21 12:32:08;;;;;;;;;15.33;11.67;;;;;6.63;68.44;103215.97;6293994;22;47947;-87
2022/01/21 12:34:56;;;;;;;;;9.00;8.00;;;;;7.31;68.24;103323.91;6293438;22;45384;-87